Boynton Beach, FL (33435)

6:37 AM EDT on September 02, 2014 (GMT -0400)
APRSWXNET West Palm Beach FL US | Change Station
CLOSE
Current Station
Personal Weather Station
Location: Boynton Beach, FL
Elevation: 32 ft
Nearby Weather Stations

Elev 32 ft 26.53 °N, 80.07 °W | Updated 22 hours ago

Thunderstorm
Thunderstorm
84 °F
Feels Like 90 °F
N
10
Wind Variable Wind from East
Gusts 12 mph

Today
High -- | Low -- °F
--% Chance of Precip.
Yesterday
High -- | Low -- °F
Precip. -- in
7:00 AM 7:38 PM
Waxing Crescent, 50% visible
Pressure 30.01 in
Visibility 10.0 miles
Clouds Scattered Clouds 2400 ft
Scattered Clouds 4200 ft
Heat Index 90 °F
Dew Point 72 °F
Humidity 68%
Rainfall 0.00 in
Snow Depth Not available.
UV 0 out of 12
Pollen 5.20 out of 12
Air Quality Not available.
Flu Activity Not available.
METAR KPBI 020953Z 00000KT 10SM SCT024TCU SCT042 26/23 A3001 RMK AO2 SLP160 TCU NE SE TCU DSNT NE T02560228

More Conditions Fewer Conditions

Pressure 30.01 in
Visibility 10.0 miles
Clouds Scattered Clouds 2400 ft
Scattered Clouds 4200 ft
Heat Index 90 °F
Dew Point 72 °F
Humidity 68%
Rainfall 0.00 in
Snow Depth Not available.
UV 0 out of 12
Pollen 5.20 out of 12
Air Quality Not available.
Flu Activity Not available.
METAR KPBI 020953Z 00000KT 10SM SCT024TCU SCT042 26/23 A3001 RMK AO2 SLP160 TCU NE SE TCU DSNT NE T02560228

More Conditions Fewer Conditions

10-Day Weather Forecast

Almanac

Astronomy

Sep. 02, 2014 Rise Set
Actual Time 7:00 AM EDT 7:38 PM EDT
Civil Twilight 6:36 AM EDT 8:02 PM EDT
Nautical Twilight 6:09 AM EDT 8:29 PM EDT
Astronomical Twilight 5:41 AM EDT 8:57 PM EDT
Moon 2:03 PM EDT 12:18 AM EDT
Length of Visible Light 13h 25m
Length of Day
12h 38m
Tomorrow will be 1m 30s shorter.
Waxing Crescent, 50% of the Moon is Illuminated
Today
Waxing Crescent
Sep 2
First Quarter
Sep 8
Full
Sep 15
Last Quarter
Sep 24
New

Today's Extremes

State Highs State Lows

Community

WunderPhotos

Upload Photos

1,749,611 photos uploaded!

WunderBlogs® & News

Nearby

Air Quality

  Air Quality AQ Index Pollutant
Yesterday Moderate
PM2.5
Tuesday Good
OZONE
Tuesday Good
PM2.5

Snow Depth

Station Depth Elevation
No new snow has been reported.

Earthquake Activity

City Distance Mag. Time & Date
No recent earthquake activity has been reported nearby.
Minimum magnitude displayed is 2.5.

Coastal Water Temperatures

Place Temperature
Lake Worth, FL 86.0 °F
Virginia Key, FL 87.1 °F

Nearby Weather Stations